sensor_id;sensor_type;location;lat;lon;timestamp;pressure;altitude;pressure_sealevel;temperature;humidity
27210;BME280;14721;42.668;23.386;2022-09-02T00:01:01;94963.06;;;21.23;91.03
27210;BME280;14721;42.668;23.386;2022-09-02T00:03:33;94970.47;;;21.14;90.85
27210;BME280;14721;42.668;23.386;2022-09-02T00:06:00;94972.34;;;21.14;90.87
27210;BME280;14721;42.668;23.386;2022-09-02T00:08:28;94956.78;;;21.08;91.18
27210;BME280;14721;42.668;23.386;2022-09-02T00:10:58;94967.94;;;21.13;91.05
27210;BME280;14721;42.668;23.386;2022-09-02T00:13:26;94964.19;;;21.14;90.84
27210;BME280;14721;42.668;23.386;2022-09-02T00:15:51;94959.06;;;21.04;91.44
27210;BME280;14721;42.668;23.386;2022-09-02T00:18:17;94967.03;;;21.06;91.63
27210;BME280;14721;42.668;23.386;2022-09-02T00:20:46;94968.31;;;21.10;91.80
27210;BME280;14721;42.668;23.386;2022-09-02T00:23:14;94964.69;;;21.17;91.51
27210;BME280;14721;42.668;23.386;2022-09-02T00:25:42;94968.50;;;21.23;91.43
27210;BME280;14721;42.668;23.386;2022-09-02T00:28:12;94965.72;;;21.31;90.70
27210;BME280;14721;42.668;23.386;2022-09-02T00:30:42;94968.53;;;21.37;90.30
27210;BME280;14721;42.668;23.386;2022-09-02T00:33:13;94978.84;;;21.42;90.24
27210;BME280;14721;42.668;23.386;2022-09-02T00:35:41;94984.72;;;21.45;89.61
27210;BME280;14721;42.668;23.386;2022-09-02T00:38:07;94980.25;;;21.52;89.41
27210;BME280;14721;42.668;23.386;2022-09-02T00:40:33;94982.78;;;21.54;89.59
27210;BME280;14721;42.668;23.386;2022-09-02T00:43:02;94988.22;;;21.54;89.37
27210;BME280;14721;42.668;23.386;2022-09-02T00:45:29;94979.94;;;21.62;89.10
27210;BME280;14721;42.668;23.386;2022-09-02T00:47:54;94974.63;;;21.54;88.65
27210;BME280;14721;42.668;23.386;2022-09-02T00:50:25;94987.56;;;21.52;88.76
27210;BME280;14721;42.668;23.386;2022-09-02T00:52:53;94981.44;;;21.50;88.99
27210;BME280;14721;42.668;23.386;2022-09-02T00:55:26;94990.56;;;21.57;89.12
27210;BME280;14721;42.668;23.386;2022-09-02T00:58:03;94984.19;;;21.64;88.76
27210;BME280;14721;42.668;23.386;2022-09-02T01:00:34;94986.22;;;21.62;88.69
27210;BME280;14721;42.668;23.386;2022-09-02T01:03:06;94985.47;;;21.68;88.36
27210;BME280;14721;42.668;23.386;2022-09-02T01:05:35;94988.19;;;21.68;88.51
27210;BME280;14721;42.668;23.386;2022-09-02T01:08:02;94982.19;;;21.73;88.39
27210;BME280;14721;42.668;23.386;2022-09-02T01:10:31;94978.09;;;21.77;88.23
27210;BME280;14721;42.668;23.386;2022-09-02T01:13:06;94977.25;;;21.76;88.44
27210;BME280;14721;42.668;23.386;2022-09-02T01:15:40;94975.84;;;21.80;88.42
27210;BME280;14721;42.668;23.386;2022-09-02T01:18:09;94979.03;;;21.84;88.43
27210;BME280;14721;42.668;23.386;2022-09-02T01:20:37;94979.84;;;21.84;88.55
27210;BME280;14721;42.668;23.386;2022-09-02T01:23:02;94986.91;;;21.79;88.81
27210;BME280;14721;42.668;23.386;2022-09-02T01:25:32;94976.75;;;21.73;88.90
27210;BME280;14721;42.668;23.386;2022-09-02T01:28:01;94987.53;;;21.66;89.36
27210;BME280;14721;42.668;23.386;2022-09-02T01:30:29;94986.41;;;21.61;89.50
27210;BME280;14721;42.668;23.386;2022-09-02T01:32:56;94977.91;;;21.49;88.51
27210;BME280;14721;42.668;23.386;2022-09-02T01:35:22;94984.91;;;21.44;87.95
27210;BME280;14721;42.668;23.386;2022-09-02T01:37:47;94982.69;;;21.47;87.37
27210;BME280;14721;42.668;23.386;2022-09-02T01:40:15;94973.31;;;21.35;87.13
27210;BME280;14721;42.668;23.386;2022-09-02T01:42:44;94980.06;;;21.54;86.40
27210;BME280;14721;42.668;23.386;2022-09-02T01:45:10;94975.00;;;21.51;85.39
27210;BME280;14721;42.668;23.386;2022-09-02T01:47:36;94977.41;;;21.60;84.38
27210;BME280;14721;42.668;23.386;2022-09-02T01:50:04;94975.53;;;21.61;84.29
27210;BME280;14721;42.668;23.386;2022-09-02T01:52:30;94965.25;;;21.56;84.00
27210;BME280;14721;42.668;23.386;2022-09-02T01:54:57;94952.59;;;21.49;83.91
27210;BME280;14721;42.668;23.386;2022-09-02T01:57:23;94949.13;;;21.55;84.10
27210;BME280;14721;42.668;23.386;2022-09-02T01:59:50;94939.72;;;21.57;83.93
27210;BME280;14721;42.668;23.386;2022-09-02T02:02:16;94943.94;;;21.45;83.41
27210;BME280;14721;42.668;23.386;2022-09-02T02:04:43;94941.72;;;21.34;83.42
27210;BME280;14721;42.668;23.386;2022-09-02T02:07:11;94934.59;;;21.33;83.06
27210;BME280;14721;42.668;23.386;2022-09-02T02:09:38;94937.88;;;21.29;83.40
27210;BME280;14721;42.668;23.386;2022-09-02T02:12:06;94934.91;;;21.24;83.17
27210;BME280;14721;42.668;23.386;2022-09-02T02:14:33;94946.50;;;21.18;83.89
27210;BME280;14721;42.668;23.386;2022-09-02T02:16:58;94950.78;;;21.12;82.39
27210;BME280;14721;42.668;23.386;2022-09-02T02:19:24;94950.22;;;21.02;81.63
27210;BME280;14721;42.668;23.386;2022-09-02T02:21:50;94958.56;;;21.01;81.32
27210;BME280;14721;42.668;23.386;2022-09-02T02:24:16;94950.78;;;20.98;81.58
27210;BME280;14721;42.668;23.386;2022-09-02T02:26:43;94954.56;;;20.97;80.96
27210;BME280;14721;42.668;23.386;2022-09-02T02:29:15;94951.84;;;20.97;81.52
27210;BME280;14721;42.668;23.386;2022-09-02T02:31:41;94952.59;;;20.83;82.18
27210;BME280;14721;42.668;23.386;2022-09-02T02:34:08;94956.06;;;20.77;82.98
27210;BME280;14721;42.668;23.386;2022-09-02T02:36:36;94973.22;;;20.77;83.23
27210;BME280;14721;42.668;23.386;2022-09-02T02:39:02;94970.19;;;20.72;83.57
27210;BME280;14721;42.668;23.386;2022-09-02T02:41:29;94963.50;;;20.60;84.19
27210;BME280;14721;42.668;23.386;2022-09-02T02:43:55;94964.50;;;20.44;85.56
27210;BME280;14721;42.668;23.386;2022-09-02T02:46:21;94974.31;;;20.23;87.40
27210;BME280;14721;42.668;23.386;2022-09-02T02:48:47;94971.47;;;20.16;87.99
27210;BME280;14721;42.668;23.386;2022-09-02T02:51:20;94976.25;;;20.14;88.66
27210;BME280;14721;42.668;23.386;2022-09-02T02:53:47;94970.84;;;20.14;89.15
27210;BME280;14721;42.668;23.386;2022-09-02T02:56:12;94964.03;;;20.18;89.34
27210;BME280;14721;42.668;23.386;2022-09-02T02:58:38;94960.19;;;20.05;90.16
27210;BME280;14721;42.668;23.386;2022-09-02T03:01:04;94964.22;;;20.09;90.70
27210;BME280;14721;42.668;23.386;2022-09-02T03:03:30;94967.63;;;20.03;90.84
27210;BME280;14721;42.668;23.386;2022-09-02T03:05:57;94967.63;;;20.03;91.02
27210;BME280;14721;42.668;23.386;2022-09-02T03:08:22;94972.72;;;20.06;91.09
27210;BME280;14721;42.668;23.386;2022-09-02T03:10:52;94969.16;;;20.05;90.92
27210;BME280;14721;42.668;23.386;2022-09-02T03:13:20;94969.16;;;20.05;91.19
27210;BME280;14721;42.668;23.386;2022-09-02T03:15:46;94969.22;;;19.97;91.47
27210;BME280;14721;42.668;23.386;2022-09-02T03:18:15;94974.13;;;19.94;91.87
27210;BME280;14721;42.668;23.386;2022-09-02T03:20:41;94970.78;;;19.92;92.36
27210;BME280;14721;42.668;23.386;2022-09-02T03:23:07;94963.72;;;19.83;92.82
27210;BME280;14721;42.668;23.386;2022-09-02T03:25:34;94965.34;;;19.92;92.76
27210;BME280;14721;42.668;23.386;2022-09-02T03:28:00;94959.56;;;19.95;92.32
27210;BME280;14721;42.668;23.386;2022-09-02T03:30:28;94970.53;;;20.01;92.33
27210;BME280;14721;42.668;23.386;2022-09-02T03:32:57;94961.56;;;20.01;92.33
27210;BME280;14721;42.668;23.386;2022-09-02T03:35:25;94968.19;;;19.98;92.13
27210;BME280;14721;42.668;23.386;2022-09-02T03:37:51;94967.81;;;20.01;92.06
27210;BME280;14721;42.668;23.386;2022-09-02T03:40:20;94962.28;;;19.95;92.58
27210;BME280;14721;42.668;23.386;2022-09-02T03:42:47;94967.72;;;19.95;92.50
27210;BME280;14721;42.668;23.386;2022-09-02T03:45:14;94981.69;;;20.06;92.01
27210;BME280;14721;42.668;23.386;2022-09-02T03:47:59;94973.13;;;19.95;92.29
27210;BME280;14721;42.668;23.386;2022-09-02T03:50:31;94990.91;;;19.97;92.52
27210;BME280;14721;42.668;23.386;2022-09-02T03:52:58;94992.72;;;20.05;91.98
27210;BME280;14721;42.668;23.386;2022-09-02T03:55:25;94992.22;;;20.01;92.51
27210;BME280;14721;42.668;23.386;2022-09-02T03:57:51;95013.09;;;20.01;92.36
27210;BME280;14721;42.668;23.386;2022-09-02T04:00:21;95004.31;;;19.91;92.97
27210;BME280;14721;42.668;23.386;2022-09-02T04:02:51;94999.91;;;19.98;92.82
27210;BME280;14721;42.668;23.386;2022-09-02T04:05:18;95007.88;;;19.91;93.04
27210;BME280;14721;42.668;23.386;2022-09-02T04:07:44;95007.19;;;19.97;92.96
27210;BME280;14721;42.668;23.386;2022-09-02T04:10:10;95011.72;;;20.05;92.64
27210;BME280;14721;42.668;23.386;2022-09-02T04:12:36;95015.91;;;20.15;92.39
27210;BME280;14721;42.668;23.386;2022-09-02T04:15:04;95009.63;;;20.15;92.33
27210;BME280;14721;42.668;23.386;2022-09-02T04:17:30;95017.75;;;20.23;92.00
27210;BME280;14721;42.668;23.386;2022-09-02T04:20:00;95015.03;;;20.23;91.80
27210;BME280;14721;42.668;23.386;2022-09-02T04:22:26;95022.81;;;20.26;91.69
27210;BME280;14721;42.668;23.386;2022-09-02T04:24:51;95019.91;;;20.27;92.23
27210;BME280;14721;42.668;23.386;2022-09-02T04:27:18;95028.44;;;20.16;92.94
27210;BME280;14721;42.668;23.386;2022-09-02T04:29:43;95027.38;;;20.25;93.06
27210;BME280;14721;42.668;23.386;2022-09-02T04:32:09;95034.63;;;20.33;92.44
27210;BME280;14721;42.668;23.386;2022-09-02T04:34:35;95029.16;;;20.41;92.27
27210;BME280;14721;42.668;23.386;2022-09-02T04:37:01;95037.47;;;20.39;91.65
27210;BME280;14721;42.668;23.386;2022-09-02T04:39:28;95033.44;;;20.35;91.90
27210;BME280;14721;42.668;23.386;2022-09-02T04:41:54;95033.72;;;20.40;91.53
27210;BME280;14721;42.668;23.386;2022-09-02T04:44:20;95037.59;;;20.46;91.48
27210;BME280;14721;42.668;23.386;2022-09-02T04:46:46;95049.06;;;20.56;91.01
27210;BME280;14721;42.668;23.386;2022-09-02T04:49:13;95044.34;;;20.50;91.18
27210;BME280;14721;42.668;23.386;2022-09-02T04:51:38;95044.28;;;20.58;91.17
27210;BME280;14721;42.668;23.386;2022-09-02T04:54:05;95035.75;;;20.61;90.78
27210;BME280;14721;42.668;23.386;2022-09-02T04:56:36;95050.78;;;20.72;90.18
27210;BME280;14721;42.668;23.386;2022-09-02T04:59:08;95046.22;;;20.72;90.24
27210;BME280;14721;42.668;23.386;2022-09-02T05:01:34;95047.06;;;20.73;90.17
27210;BME280;14721;42.668;23.386;2022-09-02T05:04:04;95036.47;;;20.78;89.35
27210;BME280;14721;42.668;23.386;2022-09-02T05:06:32;95048.88;;;20.80;89.75
27210;BME280;14721;42.668;23.386;2022-09-02T05:08:59;95044.59;;;20.63;91.09
27210;BME280;14721;42.668;23.386;2022-09-02T05:11:27;95049.88;;;20.57;92.60
27210;BME280;14721;42.668;23.386;2022-09-02T05:13:55;95038.38;;;20.55;93.35
27210;BME280;14721;42.668;23.386;2022-09-02T05:16:24;95052.22;;;20.60;94.09
27210;BME280;14721;42.668;23.386;2022-09-02T05:18:51;95041.00;;;20.63;95.10
27210;BME280;14721;42.668;23.386;2022-09-02T05:21:17;95046.94;;;20.66;95.29
27210;BME280;14721;42.668;23.386;2022-09-02T05:23:44;95053.03;;;20.68;95.01
27210;BME280;14721;42.668;23.386;2022-09-02T05:26:11;95044.41;;;20.65;94.36
27210;BME280;14721;42.668;23.386;2022-09-02T05:28:38;95052.91;;;20.84;93.83
27210;BME280;14721;42.668;23.386;2022-09-02T05:31:11;95056.75;;;20.90;93.46
27210;BME280;14721;42.668;23.386;2022-09-02T05:33:38;95062.09;;;20.83;92.47
27210;BME280;14721;42.668;23.386;2022-09-02T05:36:07;95059.84;;;20.64;94.11
27210;BME280;14721;42.668;23.386;2022-09-02T05:38:33;95046.16;;;20.35;95.76
27210;BME280;14721;42.668;23.386;2022-09-02T05:41:11;95058.56;;;20.29;96.15
27210;BME280;14721;42.668;23.386;2022-09-02T05:43:39;95049.94;;;20.26;97.08
27210;BME280;14721;42.668;23.386;2022-09-02T05:46:07;95056.75;;;20.22;98.67
27210;BME280;14721;42.668;23.386;2022-09-02T05:48:35;95053.38;;;20.12;99.80
27210;BME280;14721;42.668;23.386;2022-09-02T05:51:19;95047.78;;;20.13;100.00
27210;BME280;14721;42.668;23.386;2022-09-02T05:53:55;95057.28;;;20.17;100.00
27210;BME280;14721;42.668;23.386;2022-09-02T05:56:22;95056.94;;;20.20;100.00
27210;BME280;14721;42.668;23.386;2022-09-02T05:58:48;95055.72;;;20.23;100.00
27210;BME280;14721;42.668;23.386;2022-09-02T06:01:15;95052.31;;;20.21;100.00
27210;BME280;14721;42.668;23.386;2022-09-02T06:03:43;95060.06;;;20.32;100.00
27210;BME280;14721;42.668;23.386;2022-09-02T06:06:08;95046.28;;;20.41;100.00
27210;BME280;14721;42.668;23.386;2022-09-02T06:08:34;95039.03;;;20.57;98.93
27210;BME280;14721;42.668;23.386;2022-09-02T06:11:02;95046.97;;;20.81;98.51
27210;BME280;14721;42.668;23.386;2022-09-02T06:13:29;95056.91;;;20.96;96.63
27210;BME280;14721;42.668;23.386;2022-09-02T06:15:54;95062.47;;;21.03;94.79
27210;BME280;14721;42.668;23.386;2022-09-02T06:18:23;95056.19;;;21.17;93.49
27210;BME280;14721;42.668;23.386;2022-09-02T06:20:49;95058.84;;;21.25;93.41
27210;BME280;14721;42.668;23.386;2022-09-02T06:23:16;95059.41;;;21.35;93.53
27210;BME280;14721;42.668;23.386;2022-09-02T06:25:44;95055.41;;;21.31;93.90
27210;BME280;14721;42.668;23.386;2022-09-02T06:28:11;95060.94;;;21.37;92.88
27210;BME280;14721;42.668;23.386;2022-09-02T06:30:40;95060.94;;;21.52;91.10
27210;BME280;14721;42.668;23.386;2022-09-02T06:33:06;95057.75;;;21.48;89.33
27210;BME280;14721;42.668;23.386;2022-09-02T06:35:36;95054.66;;;21.37;87.14
27210;BME280;14721;42.668;23.386;2022-09-02T06:38:02;95061.31;;;21.34;86.92
27210;BME280;14721;42.668;23.386;2022-09-02T06:40:28;95070.81;;;21.16;87.74
27210;BME280;14721;42.668;23.386;2022-09-02T06:42:53;95065.00;;;21.04;90.39
27210;BME280;14721;42.668;23.386;2022-09-02T06:45:23;95071.25;;;21.05;92.02
27210;BME280;14721;42.668;23.386;2022-09-02T06:47:50;95076.69;;;21.05;93.04
27210;BME280;14721;42.668;23.386;2022-09-02T06:50:20;95076.13;;;20.87;92.15
27210;BME280;14721;42.668;23.386;2022-09-02T06:52:46;95078.97;;;20.93;91.56
27210;BME280;14721;42.668;23.386;2022-09-02T06:55:12;95081.94;;;21.06;92.56
27210;BME280;14721;42.668;23.386;2022-09-02T06:57:39;95084.84;;;21.05;93.65
27210;BME280;14721;42.668;23.386;2022-09-02T07:00:07;95075.75;;;20.98;93.95
27210;BME280;14721;42.668;23.386;2022-09-02T07:02:35;95085.50;;;21.07;94.24
27210;BME280;14721;42.668;23.386;2022-09-02T07:05:01;95076.44;;;21.14;93.60
27210;BME280;14721;42.668;23.386;2022-09-02T07:07:41;95082.91;;;21.13;93.36
27210;BME280;14721;42.668;23.386;2022-09-02T07:10:14;95086.09;;;21.17;92.46
27210;BME280;14721;42.668;23.386;2022-09-02T07:12:43;95090.78;;;21.23;92.55
27210;BME280;14721;42.668;23.386;2022-09-02T07:15:09;95085.97;;;21.33;93.33
27210;BME280;14721;42.668;23.386;2022-09-02T07:17:35;95097.28;;;21.36;93.76
27210;BME280;14721;42.668;23.386;2022-09-02T07:20:01;95084.56;;;21.37;93.07
27210;BME280;14721;42.668;23.386;2022-09-02T07:22:28;95088.75;;;21.39;93.58
27210;BME280;14721;42.668;23.386;2022-09-02T07:24:54;95092.03;;;21.35;94.02
27210;BME280;14721;42.668;23.386;2022-09-02T07:27:20;95090.38;;;21.11;95.54
27210;BME280;14721;42.668;23.386;2022-09-02T07:29:46;95092.06;;;21.12;96.20
27210;BME280;14721;42.668;23.386;2022-09-02T07:32:16;95094.16;;;21.10;97.86
27210;BME280;14721;42.668;23.386;2022-09-02T07:34:46;95095.34;;;21.08;99.19
27210;BME280;14721;42.668;23.386;2022-09-02T07:37:12;95095.50;;;21.06;99.01
27210;BME280;14721;42.668;23.386;2022-09-02T07:39:38;95096.38;;;21.07;99.09
27210;BME280;14721;42.668;23.386;2022-09-02T07:42:04;95092.97;;;21.05;98.69
27210;BME280;14721;42.668;23.386;2022-09-02T07:44:31;95096.00;;;21.10;99.43
27210;BME280;14721;42.668;23.386;2022-09-02T07:46:57;95099.56;;;21.10;97.39
27210;BME280;14721;42.668;23.386;2022-09-02T07:49:22;95094.34;;;21.09;97.50
27210;BME280;14721;42.668;23.386;2022-09-02T07:51:49;95092.63;;;21.08;96.28
27210;BME280;14721;42.668;23.386;2022-09-02T07:54:18;95094.06;;;21.18;95.60
27210;BME280;14721;42.668;23.386;2022-09-02T07:56:45;95089.72;;;21.46;92.75
27210;BME280;14721;42.668;23.386;2022-09-02T07:59:13;95101.31;;;21.77;91.33
27210;BME280;14721;42.668;23.386;2022-09-02T08:01:40;95099.25;;;21.94;89.13
27210;BME280;14721;42.668;23.386;2022-09-02T08:04:08;95102.91;;;22.15;86.66
27210;BME280;14721;42.668;23.386;2022-09-02T08:06:34;95109.63;;;22.34;84.91
27210;BME280;14721;42.668;23.386;2022-09-02T08:09:06;95112.72;;;22.46;82.97
27210;BME280;14721;42.668;23.386;2022-09-02T08:11:38;95117.31;;;22.60;84.06
27210;BME280;14721;42.668;23.386;2022-09-02T08:14:08;95110.91;;;22.67;84.27
27210;BME280;14721;42.668;23.386;2022-09-02T08:16:35;95106.31;;;22.68;83.23
27210;BME280;14721;42.668;23.386;2022-09-02T08:19:00;95110.22;;;22.80;83.35
27210;BME280;14721;42.668;23.386;2022-09-02T08:21:45;95115.75;;;22.86;82.89
27210;BME280;14721;42.668;23.386;2022-09-02T08:24:12;95122.28;;;22.92;83.32
27210;BME280;14721;42.668;23.386;2022-09-02T08:26:39;95116.47;;;22.95;82.22
27210;BME280;14721;42.668;23.386;2022-09-02T08:29:05;95115.22;;;22.97;82.54
27210;BME280;14721;42.668;23.386;2022-09-02T08:31:31;95115.50;;;23.02;82.31
27210;BME280;14721;42.668;23.386;2022-09-02T08:34:00;95107.41;;;23.09;81.94
27210;BME280;14721;42.668;23.386;2022-09-02T08:36:26;95109.31;;;23.15;80.70
27210;BME280;14721;42.668;23.386;2022-09-02T08:38:52;95099.06;;;23.17;79.51
27210;BME280;14721;42.668;23.386;2022-09-02T08:41:25;95095.47;;;23.16;78.66
27210;BME280;14721;42.668;23.386;2022-09-02T08:43:54;95102.06;;;23.22;77.33
27210;BME280;14721;42.668;23.386;2022-09-02T08:46:23;95099.72;;;23.19;77.67
27210;BME280;14721;42.668;23.386;2022-09-02T08:49:10;95099.53;;;23.20;76.97
27210;BME280;14721;42.668;23.386;2022-09-02T08:51:47;95104.03;;;23.28;76.69
27210;BME280;14721;42.668;23.386;2022-09-02T08:56:58;95093.88;;;23.43;77.68
27210;BME280;14721;42.668;23.386;2022-09-02T08:59:25;95094.78;;;23.50;76.24
27210;BME280;14721;42.668;23.386;2022-09-02T09:10:24;95097.75;;;24.10;72.54
27210;BME280;14721;42.668;23.386;2022-09-02T09:18:38;95081.41;;;24.64;71.37
27210;BME280;14721;42.668;23.386;2022-09-02T09:21:06;95080.81;;;24.68;69.64
27210;BME280;14721;42.668;23.386;2022-09-02T09:23:38;95062.63;;;24.48;70.06
27210;BME280;14721;42.668;23.386;2022-09-02T09:26:13;95078.31;;;24.73;69.15
27210;BME280;14721;42.668;23.386;2022-09-02T09:28:46;95087.56;;;24.72;70.26
27210;BME280;14721;42.668;23.386;2022-09-02T09:31:17;95080.19;;;24.66;70.35
27210;BME280;14721;42.668;23.386;2022-09-02T09:39:31;95081.06;;;24.80;66.87
27210;BME280;14721;42.668;23.386;2022-09-02T09:44:50;95074.63;;;25.20;65.64
27210;BME280;14721;42.668;23.386;2022-09-02T09:47:21;95080.97;;;25.33;65.84
27210;BME280;14721;42.668;23.386;2022-09-02T09:49:51;95061.59;;;25.67;64.28
27210;BME280;14721;42.668;23.386;2022-09-02T09:52:28;95063.06;;;25.70;62.24
27210;BME280;14721;42.668;23.386;2022-09-02T09:57:41;95074.22;;;25.88;63.20
27210;BME280;14721;42.668;23.386;2022-09-02T10:00:29;95073.38;;;25.81;63.74
27210;BME280;14721;42.668;23.386;2022-09-02T10:03:01;95075.09;;;25.75;62.89
27210;BME280;14721;42.668;23.386;2022-09-02T10:08:00;95075.72;;;25.51;64.75
27210;BME280;14721;42.668;23.386;2022-09-02T10:10:28;95083.88;;;25.25;66.25
27210;BME280;14721;42.668;23.386;2022-09-02T10:13:14;95081.13;;;25.06;65.91
27210;BME280;14721;42.668;23.386;2022-09-02T10:30:21;95070.72;;;24.69;68.69
27210;BME280;14721;42.668;23.386;2022-09-02T10:35:41;95063.69;;;25.20;65.43
27210;BME280;14721;42.668;23.386;2022-09-02T10:40:53;95063.09;;;25.63;63.28
27210;BME280;14721;42.668;23.386;2022-09-02T10:43:42;95066.03;;;25.82;63.84
27210;BME280;14721;42.668;23.386;2022-09-02T10:46:16;95074.66;;;25.98;62.59
27210;BME280;14721;42.668;23.386;2022-09-02T10:51:52;95067.44;;;25.97;61.16
27210;BME280;14721;42.668;23.386;2022-09-02T10:57:29;95077.03;;;26.52;59.78
27210;BME280;14721;42.668;23.386;2022-09-02T11:00:12;95060.75;;;26.63;58.57
27210;BME280;14721;42.668;23.386;2022-09-02T11:08:19;95046.38;;;27.12;57.31
27210;BME280;14721;42.668;23.386;2022-09-02T11:13:30;95051.34;;;27.28;57.18
27210;BME280;14721;42.668;23.386;2022-09-02T11:16:11;95058.69;;;26.96;57.16
27210;BME280;14721;42.668;23.386;2022-09-02T11:19:00;95048.13;;;27.00;57.08
27210;BME280;14721;42.668;23.386;2022-09-02T11:24:32;95041.41;;;27.33;56.94
27210;BME280;14721;42.668;23.386;2022-09-02T11:30:03;95032.28;;;27.89;55.42
27210;BME280;14721;42.668;23.386;2022-09-02T11:35:26;95019.75;;;27.93;55.33
27210;BME280;14721;42.668;23.386;2022-09-02T11:43:49;95013.06;;;27.08;56.72
27210;BME280;14721;42.668;23.386;2022-09-02T11:49:16;95008.75;;;26.50;58.51
27210;BME280;14721;42.668;23.386;2022-09-02T11:52:17;94997.31;;;26.60;58.43
27210;BME280;14721;42.668;23.386;2022-09-02T11:54:54;94996.47;;;26.59;57.91
27210;BME280;14721;42.668;23.386;2022-09-02T11:57:24;94992.31;;;26.50;58.23
27210;BME280;14721;42.668;23.386;2022-09-02T12:02:46;95005.97;;;26.57;58.43
27210;BME280;14721;42.668;23.386;2022-09-02T12:08:07;95015.25;;;26.56;59.09
27210;BME280;14721;42.668;23.386;2022-09-02T12:13:40;95014.06;;;26.83;58.04
27210;BME280;14721;42.668;23.386;2022-09-02T12:18:42;95013.56;;;26.99;57.86
27210;BME280;14721;42.668;23.386;2022-09-02T12:21:14;95002.72;;;27.10;58.32
27210;BME280;14721;42.668;23.386;2022-09-02T12:26:28;95000.38;;;27.14;57.08
27210;BME280;14721;42.668;23.386;2022-09-02T12:29:12;94997.78;;;27.19;57.37
27210;BME280;14721;42.668;23.386;2022-09-02T12:31:52;94992.69;;;27.29;57.01
27210;BME280;14721;42.668;23.386;2022-09-02T12:36:51;94983.94;;;26.39;59.19
27210;BME280;14721;42.668;23.386;2022-09-02T12:50:30;94965.91;;;26.62;59.55
27210;BME280;14721;42.668;23.386;2022-09-02T12:56:17;94953.06;;;26.19;60.71
27210;BME280;14721;42.668;23.386;2022-09-02T12:58:51;94960.28;;;26.00;61.43
27210;BME280;14721;42.668;23.386;2022-09-02T13:01:38;94953.97;;;25.93;62.22
27210;BME280;14721;42.668;23.386;2022-09-02T13:13:08;94958.13;;;26.15;60.90
27210;BME280;14721;42.668;23.386;2022-09-02T13:15:53;94956.44;;;26.14;60.77
27210;BME280;14721;42.668;23.386;2022-09-02T13:24:35;94965.56;;;25.89;61.15
27210;BME280;14721;42.668;23.386;2022-09-02T13:27:28;94957.56;;;25.87;61.51
27210;BME280;14721;42.668;23.386;2022-09-02T13:32:33;94953.47;;;25.52;61.16
27210;BME280;14721;42.668;23.386;2022-09-02T13:35:08;94959.38;;;25.29;61.51
27210;BME280;14721;42.668;23.386;2022-09-02T13:37:42;94953.69;;;25.18;61.73
27210;BME280;14721;42.668;23.386;2022-09-02T13:40:31;94957.06;;;25.00;62.61
27210;BME280;14721;42.668;23.386;2022-09-02T13:43:19;94960.38;;;24.63;67.65
27210;BME280;14721;42.668;23.386;2022-09-02T13:45:46;94964.25;;;24.28;71.31
27210;BME280;14721;42.668;23.386;2022-09-02T13:50:54;94964.94;;;23.89;75.45
27210;BME280;14721;42.668;23.386;2022-09-02T13:55:55;94980.78;;;23.39;78.82
27210;BME280;14721;42.668;23.386;2022-09-02T14:00:53;94980.13;;;23.09;82.36
27210;BME280;14721;42.668;23.386;2022-09-02T14:03:20;94999.31;;;22.74;85.98
27210;BME280;14721;42.668;23.386;2022-09-02T14:05:50;95011.16;;;22.09;90.03
27210;BME280;14721;42.668;23.386;2022-09-02T14:08:25;95010.44;;;21.72;93.24
27210;BME280;14721;42.668;23.386;2022-09-02T14:10:53;95021.78;;;21.46;99.03
27210;BME280;14721;42.668;23.386;2022-09-02T14:13:21;94988.03;;;20.52;100.00
27210;BME280;14721;42.668;23.386;2022-09-02T14:15:47;95003.22;;;20.08;100.00
27210;BME280;14721;42.668;23.386;2022-09-02T14:21:17;95042.28;;;19.91;100.00
27210;BME280;14721;42.668;23.386;2022-09-02T14:23:50;95037.88;;;19.98;100.00
27210;BME280;14721;42.668;23.386;2022-09-02T14:26:24;95047.47;;;20.08;100.00
27210;BME280;14721;42.668;23.386;2022-09-02T14:28:51;95055.94;;;20.13;100.00
27210;BME280;14721;42.668;23.386;2022-09-02T14:31:25;95047.44;;;20.16;100.00
27210;BME280;14721;42.668;23.386;2022-09-02T14:33:56;95048.66;;;20.14;100.00
27210;BME280;14721;42.668;23.386;2022-09-02T14:38:53;95054.13;;;19.98;100.00
27210;BME280;14721;42.668;23.386;2022-09-02T14:41:33;95061.91;;;20.01;100.00
27210;BME280;14721;42.668;23.386;2022-09-02T14:44:29;95053.53;;;20.10;100.00
27210;BME280;14721;42.668;23.386;2022-09-02T14:47:00;95042.16;;;19.84;100.00
27210;BME280;14721;42.668;23.386;2022-09-02T14:49:33;95062.66;;;19.79;100.00
27210;BME280;14721;42.668;23.386;2022-09-02T14:52:02;95061.50;;;19.81;100.00
27210;BME280;14721;42.668;23.386;2022-09-02T14:54:49;95065.38;;;19.79;100.00
27210;BME280;14721;42.668;23.386;2022-09-02T14:59:55;95066.63;;;20.07;100.00
27210;BME280;14721;42.668;23.386;2022-09-02T15:02:28;95056.94;;;20.20;100.00
27210;BME280;14721;42.668;23.386;2022-09-02T15:04:59;95066.16;;;20.57;100.00
27210;BME280;14721;42.668;23.386;2022-09-02T15:07:26;95062.88;;;20.69;100.00
27210;BME280;14721;42.668;23.386;2022-09-02T15:09:52;95066.91;;;20.73;100.00
27210;BME280;14721;42.668;23.386;2022-09-02T15:12:31;95070.69;;;20.87;100.00
27210;BME280;14721;42.668;23.386;2022-09-02T15:14:58;95067.97;;;21.09;100.00
27210;BME280;14721;42.668;23.386;2022-09-02T15:17:24;95067.53;;;21.06;100.00
27210;BME280;14721;42.668;23.386;2022-09-02T15:19:50;95073.97;;;21.05;100.00
27210;BME280;14721;42.668;23.386;2022-09-02T15:22:17;95071.44;;;21.03;100.00
27210;BME280;14721;42.668;23.386;2022-09-02T15:24:44;95068.25;;;21.00;100.00
27210;BME280;14721;42.668;23.386;2022-09-02T15:27:12;95075.06;;;20.96;100.00